sensor_id;sensor_type;location;lat;lon;timestamp;P1;durP1;ratioP1;P2;durP2;ratioP2
59062;SDS011;44851;45.648;9.004;2023-01-31T00:01:21;44.67;;;22.97;;
59062;SDS011;44851;45.648;9.004;2023-01-31T00:03:52;42.27;;;22.43;;
59062;SDS011;44851;45.648;9.004;2023-01-31T00:06:19;37.37;;;20.70;;
59062;SDS011;44851;45.648;9.004;2023-01-31T00:08:47;41.73;;;21.13;;
59062;SDS011;44851;45.648;9.004;2023-01-31T00:11:15;43.93;;;22.83;;
59062;SDS011;44851;45.648;9.004;2023-01-31T00:13:41;41.33;;;21.90;;
59062;SDS011;44851;45.648;9.004;2023-01-31T00:16:08;46.67;;;20.80;;
59062;SDS011;44851;45.648;9.004;2023-01-31T00:18:34;39.13;;;20.33;;
59062;SDS011;44851;45.648;9.004;2023-01-31T00:21:09;38.37;;;20.17;;
59062;SDS011;44851;45.648;9.004;2023-01-31T00:23:38;39.73;;;20.27;;
59062;SDS011;44851;45.648;9.004;2023-01-31T00:26:06;44.10;;;20.60;;
59062;SDS011;44851;45.648;9.004;2023-01-31T00:28:36;38.90;;;20.03;;
59062;SDS011;44851;45.648;9.004;2023-01-31T00:31:02;38.80;;;19.63;;
59062;SDS011;44851;45.648;9.004;2023-01-31T00:33:27;38.23;;;19.97;;
59062;SDS011;44851;45.648;9.004;2023-01-31T00:35:53;41.37;;;21.03;;
59062;SDS011;44851;45.648;9.004;2023-01-31T00:38:18;40.23;;;21.30;;
59062;SDS011;44851;45.648;9.004;2023-01-31T00:40:50;38.93;;;19.87;;
59062;SDS011;44851;45.648;9.004;2023-01-31T00:43:17;40.13;;;21.87;;
59062;SDS011;44851;45.648;9.004;2023-01-31T00:45:42;37.40;;;21.40;;
59062;SDS011;44851;45.648;9.004;2023-01-31T00:48:07;46.00;;;23.60;;
59062;SDS011;44851;45.648;9.004;2023-01-31T00:50:32;41.73;;;22.77;;
59062;SDS011;44851;45.648;9.004;2023-01-31T00:52:58;51.07;;;26.43;;
59062;SDS011;44851;45.648;9.004;2023-01-31T00:55:23;35.50;;;22.10;;
59062;SDS011;44851;45.648;9.004;2023-01-31T00:57:48;38.23;;;22.83;;
59062;SDS011;44851;45.648;9.004;2023-01-31T01:00:14;44.93;;;24.40;;
59062;SDS011;44851;45.648;9.004;2023-01-31T01:02:40;45.30;;;25.13;;
59062;SDS011;44851;45.648;9.004;2023-01-31T01:05:05;41.53;;;23.57;;
59062;SDS011;44851;45.648;9.004;2023-01-31T01:07:31;45.57;;;25.60;;
59062;SDS011;44851;45.648;9.004;2023-01-31T01:09:56;48.10;;;25.67;;
59062;SDS011;44851;45.648;9.004;2023-01-31T01:12:22;45.90;;;25.40;;
59062;SDS011;44851;45.648;9.004;2023-01-31T01:14:47;47.73;;;27.43;;
59062;SDS011;44851;45.648;9.004;2023-01-31T01:17:12;51.60;;;28.47;;
59062;SDS011;44851;45.648;9.004;2023-01-31T01:19:38;50.27;;;28.13;;
59062;SDS011;44851;45.648;9.004;2023-01-31T01:22:03;45.00;;;24.67;;
59062;SDS011;44851;45.648;9.004;2023-01-31T01:24:29;47.00;;;26.47;;
59062;SDS011;44851;45.648;9.004;2023-01-31T01:26:54;53.57;;;28.77;;
59062;SDS011;44851;45.648;9.004;2023-01-31T01:29:19;50.67;;;27.63;;
59062;SDS011;44851;45.648;9.004;2023-01-31T01:31:45;60.07;;;31.40;;
59062;SDS011;44851;45.648;9.004;2023-01-31T01:34:12;55.17;;;30.40;;
59062;SDS011;44851;45.648;9.004;2023-01-31T01:36:40;54.67;;;30.70;;
59062;SDS011;44851;45.648;9.004;2023-01-31T01:39:07;57.03;;;29.27;;
59062;SDS011;44851;45.648;9.004;2023-01-31T01:41:35;64.07;;;32.37;;
59062;SDS011;44851;45.648;9.004;2023-01-31T01:44:02;53.90;;;28.90;;
59062;SDS011;44851;45.648;9.004;2023-01-31T01:46:48;59.57;;;31.43;;
59062;SDS011;44851;45.648;9.004;2023-01-31T01:51:39;53.10;;;29.97;;
59062;SDS011;44851;45.648;9.004;2023-01-31T01:54:12;58.33;;;31.10;;
59062;SDS011;44851;45.648;9.004;2023-01-31T01:56:44;58.50;;;31.03;;
59062;SDS011;44851;45.648;9.004;2023-01-31T01:59:35;56.77;;;32.17;;
59062;SDS011;44851;45.648;9.004;2023-01-31T02:02:02;64.77;;;32.07;;
59062;SDS011;44851;45.648;9.004;2023-01-31T02:04:29;54.90;;;30.60;;
59062;SDS011;44851;45.648;9.004;2023-01-31T02:06:58;54.70;;;30.37;;
59062;SDS011;44851;45.648;9.004;2023-01-31T02:11:58;59.23;;;33.47;;
59062;SDS011;44851;45.648;9.004;2023-01-31T02:14:23;65.33;;;34.40;;
59062;SDS011;44851;45.648;9.004;2023-01-31T02:16:49;56.73;;;32.23;;
59062;SDS011;44851;45.648;9.004;2023-01-31T02:19:40;61.63;;;33.37;;
59062;SDS011;44851;45.648;9.004;2023-01-31T02:33:13;60.37;;;34.77;;
59062;SDS011;44851;45.648;9.004;2023-01-31T02:41:26;63.00;;;34.47;;
59062;SDS011;44851;45.648;9.004;2023-01-31T02:44:16;64.67;;;33.40;;
59062;SDS011;44851;45.648;9.004;2023-01-31T02:50:00;64.77;;;36.40;;
59062;SDS011;44851;45.648;9.004;2023-01-31T02:55:22;64.03;;;34.00;;
59062;SDS011;44851;45.648;9.004;2023-01-31T02:58:11;59.80;;;32.70;;
59062;SDS011;44851;45.648;9.004;2023-01-31T03:00:40;57.60;;;33.33;;
59062;SDS011;44851;45.648;9.004;2023-01-31T03:03:11;59.43;;;32.47;;
59062;SDS011;44851;45.648;9.004;2023-01-31T03:08:51;60.67;;;32.43;;
59062;SDS011;44851;45.648;9.004;2023-01-31T03:11:24;60.63;;;33.37;;
59062;SDS011;44851;45.648;9.004;2023-01-31T03:17:02;58.97;;;33.83;;
59062;SDS011;44851;45.648;9.004;2023-01-31T03:19:51;61.53;;;33.13;;
59062;SDS011;44851;45.648;9.004;2023-01-31T03:22:28;56.83;;;32.43;;
59062;SDS011;44851;45.648;9.004;2023-01-31T03:24:57;61.00;;;32.03;;
59062;SDS011;44851;45.648;9.004;2023-01-31T03:27:24;59.63;;;32.30;;
59062;SDS011;44851;45.648;9.004;2023-01-31T03:29:50;56.80;;;31.87;;
59062;SDS011;44851;45.648;9.004;2023-01-31T03:32:32;58.23;;;32.57;;
59062;SDS011;44851;45.648;9.004;2023-01-31T03:35:02;56.77;;;32.60;;
59062;SDS011;44851;45.648;9.004;2023-01-31T03:42:45;56.00;;;31.13;;
59062;SDS011;44851;45.648;9.004;2023-01-31T03:45:22;57.03;;;32.10;;
59062;SDS011;44851;45.648;9.004;2023-01-31T03:47:54;60.07;;;33.03;;
59062;SDS011;44851;45.648;9.004;2023-01-31T03:50:25;58.63;;;32.57;;
59062;SDS011;44851;45.648;9.004;2023-01-31T03:53:01;54.70;;;30.77;;
59062;SDS011;44851;45.648;9.004;2023-01-31T03:55:36;56.23;;;33.13;;
59062;SDS011;44851;45.648;9.004;2023-01-31T03:58:06;55.43;;;32.30;;
59062;SDS011;44851;45.648;9.004;2023-01-31T04:00:35;55.80;;;31.53;;
59062;SDS011;44851;45.648;9.004;2023-01-31T04:03:10;54.63;;;31.47;;
59062;SDS011;44851;45.648;9.004;2023-01-31T04:05:47;50.63;;;30.70;;
59062;SDS011;44851;45.648;9.004;2023-01-31T04:08:13;59.73;;;32.07;;
59062;SDS011;44851;45.648;9.004;2023-01-31T04:10:39;53.73;;;31.93;;
59062;SDS011;44851;45.648;9.004;2023-01-31T04:13:04;55.63;;;30.90;;
59062;SDS011;44851;45.648;9.004;2023-01-31T04:15:30;56.33;;;30.67;;
59062;SDS011;44851;45.648;9.004;2023-01-31T04:17:55;58.13;;;33.23;;
59062;SDS011;44851;45.648;9.004;2023-01-31T04:20:20;56.40;;;30.27;;
59062;SDS011;44851;45.648;9.004;2023-01-31T04:22:46;50.37;;;29.70;;
59062;SDS011;44851;45.648;9.004;2023-01-31T04:25:11;57.77;;;29.83;;
59062;SDS011;44851;45.648;9.004;2023-01-31T04:27:36;50.53;;;28.43;;
59062;SDS011;44851;45.648;9.004;2023-01-31T04:30:03;53.10;;;31.43;;
59062;SDS011;44851;45.648;9.004;2023-01-31T04:32:29;55.20;;;32.47;;
59062;SDS011;44851;45.648;9.004;2023-01-31T04:34:54;56.10;;;30.30;;
59062;SDS011;44851;45.648;9.004;2023-01-31T04:37:19;54.73;;;30.93;;
59062;SDS011;44851;45.648;9.004;2023-01-31T04:39:45;53.47;;;31.73;;
59062;SDS011;44851;45.648;9.004;2023-01-31T04:42:10;56.50;;;29.87;;
59062;SDS011;44851;45.648;9.004;2023-01-31T04:44:35;57.73;;;32.43;;
59062;SDS011;44851;45.648;9.004;2023-01-31T04:47:01;53.43;;;29.23;;
59062;SDS011;44851;45.648;9.004;2023-01-31T04:49:26;58.57;;;31.40;;
59062;SDS011;44851;45.648;9.004;2023-01-31T04:51:51;55.50;;;30.50;;
59062;SDS011;44851;45.648;9.004;2023-01-31T04:54:17;52.93;;;30.23;;
59062;SDS011;44851;45.648;9.004;2023-01-31T04:56:42;53.90;;;30.93;;
59062;SDS011;44851;45.648;9.004;2023-01-31T04:59:07;60.07;;;30.47;;
59062;SDS011;44851;45.648;9.004;2023-01-31T05:01:33;54.77;;;30.47;;
59062;SDS011;44851;45.648;9.004;2023-01-31T05:03:58;59.83;;;32.50;;
59062;SDS011;44851;45.648;9.004;2023-01-31T05:06:24;54.83;;;31.40;;
59062;SDS011;44851;45.648;9.004;2023-01-31T05:08:49;55.43;;;29.97;;
59062;SDS011;44851;45.648;9.004;2023-01-31T05:11:17;59.60;;;31.27;;
59062;SDS011;44851;45.648;9.004;2023-01-31T05:13:42;49.43;;;29.70;;
59062;SDS011;44851;45.648;9.004;2023-01-31T05:16:10;53.93;;;29.40;;
59062;SDS011;44851;45.648;9.004;2023-01-31T05:18:36;52.57;;;30.83;;
59062;SDS011;44851;45.648;9.004;2023-01-31T05:21:03;51.97;;;30.80;;
59062;SDS011;44851;45.648;9.004;2023-01-31T05:23:29;55.13;;;30.97;;
59062;SDS011;44851;45.648;9.004;2023-01-31T05:25:55;52.53;;;29.83;;
59062;SDS011;44851;45.648;9.004;2023-01-31T05:28:21;59.47;;;31.77;;
59062;SDS011;44851;45.648;9.004;2023-01-31T05:30:48;51.57;;;29.93;;
59062;SDS011;44851;45.648;9.004;2023-01-31T05:33:13;56.87;;;31.93;;
59062;SDS011;44851;45.648;9.004;2023-01-31T05:35:38;54.87;;;31.40;;
59062;SDS011;44851;45.648;9.004;2023-01-31T05:38:06;50.87;;;29.00;;
59062;SDS011;44851;45.648;9.004;2023-01-31T05:40:31;53.53;;;30.63;;
59062;SDS011;44851;45.648;9.004;2023-01-31T05:42:57;54.70;;;31.53;;
59062;SDS011;44851;45.648;9.004;2023-01-31T05:45:26;56.43;;;32.20;;
59062;SDS011;44851;45.648;9.004;2023-01-31T05:47:52;60.57;;;33.10;;
59062;SDS011;44851;45.648;9.004;2023-01-31T05:50:18;59.20;;;31.60;;
59062;SDS011;44851;45.648;9.004;2023-01-31T05:52:54;64.53;;;34.53;;
59062;SDS011;44851;45.648;9.004;2023-01-31T05:55:23;58.83;;;33.50;;
59062;SDS011;44851;45.648;9.004;2023-01-31T05:57:50;59.10;;;32.57;;
59062;SDS011;44851;45.648;9.004;2023-01-31T06:00:16;59.63;;;33.87;;
59062;SDS011;44851;45.648;9.004;2023-01-31T06:02:42;58.87;;;32.37;;
59062;SDS011;44851;45.648;9.004;2023-01-31T06:05:08;59.83;;;33.70;;
59062;SDS011;44851;45.648;9.004;2023-01-31T06:07:34;70.00;;;35.97;;
59062;SDS011;44851;45.648;9.004;2023-01-31T06:09:59;57.37;;;32.13;;
59062;SDS011;44851;45.648;9.004;2023-01-31T06:12:25;61.70;;;34.93;;
59062;SDS011;44851;45.648;9.004;2023-01-31T06:14:50;62.73;;;33.63;;
59062;SDS011;44851;45.648;9.004;2023-01-31T06:17:15;62.33;;;34.23;;
59062;SDS011;44851;45.648;9.004;2023-01-31T06:19:41;58.27;;;33.50;;
59062;SDS011;44851;45.648;9.004;2023-01-31T06:22:07;59.43;;;32.87;;
59062;SDS011;44851;45.648;9.004;2023-01-31T06:24:32;65.10;;;34.13;;
59062;SDS011;44851;45.648;9.004;2023-01-31T06:26:58;60.67;;;34.20;;
59062;SDS011;44851;45.648;9.004;2023-01-31T06:29:23;62.53;;;35.00;;
59062;SDS011;44851;45.648;9.004;2023-01-31T06:31:48;64.00;;;33.37;;
59062;SDS011;44851;45.648;9.004;2023-01-31T06:34:14;63.77;;;35.63;;
59062;SDS011;44851;45.648;9.004;2023-01-31T06:36:39;58.00;;;35.07;;
59062;SDS011;44851;45.648;9.004;2023-01-31T06:39:04;63.13;;;34.50;;
59062;SDS011;44851;45.648;9.004;2023-01-31T06:41:30;58.63;;;33.90;;
59062;SDS011;44851;45.648;9.004;2023-01-31T06:43:55;60.50;;;34.20;;
59062;SDS011;44851;45.648;9.004;2023-01-31T06:46:21;65.57;;;34.60;;
59062;SDS011;44851;45.648;9.004;2023-01-31T06:48:47;60.13;;;34.20;;
59062;SDS011;44851;45.648;9.004;2023-01-31T06:51:13;61.57;;;34.47;;
59062;SDS011;44851;45.648;9.004;2023-01-31T06:53:39;64.20;;;35.30;;
59062;SDS011;44851;45.648;9.004;2023-01-31T06:56:05;62.23;;;34.10;;
59062;SDS011;44851;45.648;9.004;2023-01-31T06:58:30;59.20;;;35.30;;
59062;SDS011;44851;45.648;9.004;2023-01-31T07:01:02;63.60;;;34.80;;
59062;SDS011;44851;45.648;9.004;2023-01-31T07:03:28;63.67;;;35.10;;
59062;SDS011;44851;45.648;9.004;2023-01-31T07:05:54;53.90;;;33.00;;
59062;SDS011;44851;45.648;9.004;2023-01-31T07:08:19;62.57;;;34.30;;
59062;SDS011;44851;45.648;9.004;2023-01-31T07:10:46;61.53;;;37.10;;
59062;SDS011;44851;45.648;9.004;2023-01-31T07:13:12;59.93;;;36.57;;
59062;SDS011;44851;45.648;9.004;2023-01-31T07:15:37;60.53;;;34.20;;
59062;SDS011;44851;45.648;9.004;2023-01-31T07:18:02;67.87;;;38.13;;
59062;SDS011;44851;45.648;9.004;2023-01-31T07:20:28;60.00;;;35.37;;
59062;SDS011;44851;45.648;9.004;2023-01-31T07:22:54;65.43;;;35.70;;
59062;SDS011;44851;45.648;9.004;2023-01-31T07:25:23;66.30;;;35.93;;
59062;SDS011;44851;45.648;9.004;2023-01-31T07:27:49;66.57;;;35.67;;
59062;SDS011;44851;45.648;9.004;2023-01-31T07:30:14;64.40;;;36.73;;
59062;SDS011;44851;45.648;9.004;2023-01-31T07:32:40;61.17;;;35.90;;
59062;SDS011;44851;45.648;9.004;2023-01-31T07:35:05;69.57;;;35.70;;
59062;SDS011;44851;45.648;9.004;2023-01-31T07:37:31;63.43;;;36.23;;
59062;SDS011;44851;45.648;9.004;2023-01-31T07:39:57;65.27;;;34.10;;
59062;SDS011;44851;45.648;9.004;2023-01-31T07:42:23;64.00;;;35.70;;
59062;SDS011;44851;45.648;9.004;2023-01-31T07:44:48;65.90;;;36.10;;
59062;SDS011;44851;45.648;9.004;2023-01-31T07:47:13;66.30;;;36.17;;
59062;SDS011;44851;45.648;9.004;2023-01-31T07:49:38;72.93;;;38.70;;
59062;SDS011;44851;45.648;9.004;2023-01-31T07:52:04;62.13;;;36.00;;
59062;SDS011;44851;45.648;9.004;2023-01-31T07:54:29;66.47;;;37.37;;
59062;SDS011;44851;45.648;9.004;2023-01-31T07:56:54;64.83;;;37.10;;
59062;SDS011;44851;45.648;9.004;2023-01-31T07:59:20;71.07;;;37.80;;
59062;SDS011;44851;45.648;9.004;2023-01-31T08:01:45;70.30;;;38.63;;
59062;SDS011;44851;45.648;9.004;2023-01-31T08:04:40;72.20;;;39.63;;
59062;SDS011;44851;45.648;9.004;2023-01-31T08:07:05;68.40;;;37.87;;
59062;SDS011;44851;45.648;9.004;2023-01-31T08:09:31;69.70;;;38.77;;
59062;SDS011;44851;45.648;9.004;2023-01-31T08:11:57;72.50;;;38.87;;
59062;SDS011;44851;45.648;9.004;2023-01-31T08:14:22;69.57;;;39.23;;
59062;SDS011;44851;45.648;9.004;2023-01-31T08:16:50;70.80;;;37.90;;
59062;SDS011;44851;45.648;9.004;2023-01-31T08:19:15;73.10;;;39.67;;
59062;SDS011;44851;45.648;9.004;2023-01-31T08:21:41;71.20;;;40.47;;
59062;SDS011;44851;45.648;9.004;2023-01-31T08:24:06;73.93;;;40.13;;
59062;SDS011;44851;45.648;9.004;2023-01-31T08:26:32;69.83;;;39.63;;
59062;SDS011;44851;45.648;9.004;2023-01-31T08:28:57;68.60;;;38.23;;
59062;SDS011;44851;45.648;9.004;2023-01-31T08:31:24;62.80;;;37.00;;
59062;SDS011;44851;45.648;9.004;2023-01-31T08:33:51;67.07;;;39.07;;
59062;SDS011;44851;45.648;9.004;2023-01-31T08:36:21;68.13;;;38.90;;
59062;SDS011;44851;45.648;9.004;2023-01-31T08:38:48;68.00;;;38.50;;
59062;SDS011;44851;45.648;9.004;2023-01-31T08:41:14;67.27;;;38.33;;
59062;SDS011;44851;45.648;9.004;2023-01-31T08:43:42;78.13;;;40.87;;
59062;SDS011;44851;45.648;9.004;2023-01-31T08:46:08;65.40;;;39.30;;
59062;SDS011;44851;45.648;9.004;2023-01-31T08:48:34;72.20;;;41.00;;
59062;SDS011;44851;45.648;9.004;2023-01-31T08:51:01;67.20;;;38.97;;
59062;SDS011;44851;45.648;9.004;2023-01-31T08:53:31;70.63;;;37.80;;
59062;SDS011;44851;45.648;9.004;2023-01-31T08:56:00;61.57;;;36.57;;
59062;SDS011;44851;45.648;9.004;2023-01-31T08:58:27;61.23;;;36.70;;
59062;SDS011;44851;45.648;9.004;2023-01-31T09:00:52;64.87;;;38.40;;
59062;SDS011;44851;45.648;9.004;2023-01-31T09:03:18;68.63;;;38.97;;
59062;SDS011;44851;45.648;9.004;2023-01-31T09:05:43;65.10;;;38.30;;
59062;SDS011;44851;45.648;9.004;2023-01-31T09:08:10;63.83;;;37.03;;
59062;SDS011;44851;45.648;9.004;2023-01-31T09:10:36;61.03;;;34.77;;
59062;SDS011;44851;45.648;9.004;2023-01-31T09:13:01;60.00;;;35.53;;
59062;SDS011;44851;45.648;9.004;2023-01-31T09:15:26;53.87;;;35.50;;
59062;SDS011;44851;45.648;9.004;2023-01-31T09:17:52;65.20;;;35.90;;
59062;SDS011;44851;45.648;9.004;2023-01-31T09:20:17;57.70;;;33.17;;
59062;SDS011;44851;45.648;9.004;2023-01-31T09:22:43;55.20;;;33.93;;
59062;SDS011;44851;45.648;9.004;2023-01-31T09:25:08;58.03;;;33.30;;
59062;SDS011;44851;45.648;9.004;2023-01-31T09:27:35;59.47;;;34.63;;
59062;SDS011;44851;45.648;9.004;2023-01-31T09:30:03;53.57;;;33.67;;
59062;SDS011;44851;45.648;9.004;2023-01-31T09:32:30;55.10;;;33.87;;
59062;SDS011;44851;45.648;9.004;2023-01-31T09:34:56;54.37;;;32.93;;
59062;SDS011;44851;45.648;9.004;2023-01-31T09:37:22;56.67;;;33.53;;
59062;SDS011;44851;45.648;9.004;2023-01-31T09:39:47;57.83;;;33.77;;
59062;SDS011;44851;45.648;9.004;2023-01-31T09:42:20;52.77;;;33.47;;
59062;SDS011;44851;45.648;9.004;2023-01-31T09:45:14;52.50;;;31.83;;
59062;SDS011;44851;45.648;9.004;2023-01-31T09:47:53;52.80;;;33.90;;
59062;SDS011;44851;45.648;9.004;2023-01-31T09:50:22;50.00;;;31.60;;
59062;SDS011;44851;45.648;9.004;2023-01-31T09:52:51;57.80;;;33.47;;
59062;SDS011;44851;45.648;9.004;2023-01-31T09:55:30;54.33;;;32.20;;
59062;SDS011;44851;45.648;9.004;2023-01-31T09:58:51;54.53;;;31.17;;
59062;SDS011;44851;45.648;9.004;2023-01-31T10:09:16;56.10;;;34.13;;
59062;SDS011;44851;45.648;9.004;2023-01-31T10:11:46;53.80;;;32.70;;
59062;SDS011;44851;45.648;9.004;2023-01-31T10:19:31;60.33;;;35.13;;
59062;SDS011;44851;45.648;9.004;2023-01-31T10:22:05;52.20;;;33.47;;
59062;SDS011;44851;45.648;9.004;2023-01-31T10:24:48;56.40;;;33.77;;
59062;SDS011;44851;45.648;9.004;2023-01-31T10:27:22;58.23;;;35.37;;
59062;SDS011;44851;45.648;9.004;2023-01-31T10:29:52;58.13;;;34.10;;
59062;SDS011;44851;45.648;9.004;2023-01-31T10:32:27;60.00;;;34.30;;
59062;SDS011;44851;45.648;9.004;2023-01-31T10:37:42;56.80;;;33.97;;
59062;SDS011;44851;45.648;9.004;2023-01-31T10:40:13;56.83;;;34.60;;
59062;SDS011;44851;45.648;9.004;2023-01-31T10:42:50;55.67;;;33.77;;
59062;SDS011;44851;45.648;9.004;2023-01-31T10:45:21;55.50;;;32.40;;
59062;SDS011;44851;45.648;9.004;2023-01-31T10:47:56;53.83;;;32.60;;
59062;SDS011;44851;45.648;9.004;2023-01-31T10:56:42;53.77;;;33.27;;
59062;SDS011;44851;45.648;9.004;2023-01-31T10:59:11;67.30;;;38.83;;
59062;SDS011;44851;45.648;9.004;2023-01-31T11:01:45;56.53;;;35.57;;
59062;SDS011;44851;45.648;9.004;2023-01-31T11:06:52;55.77;;;34.93;;
59062;SDS011;44851;45.648;9.004;2023-01-31T11:09:18;59.23;;;36.10;;
59062;SDS011;44851;45.648;9.004;2023-01-31T11:11:56;59.10;;;33.33;;
59062;SDS011;44851;45.648;9.004;2023-01-31T11:14:23;58.97;;;36.00;;
59062;SDS011;44851;45.648;9.004;2023-01-31T11:16:48;52.13;;;33.73;;
59062;SDS011;44851;45.648;9.004;2023-01-31T11:19:31;55.23;;;35.33;;
59062;SDS011;44851;45.648;9.004;2023-01-31T11:21:58;61.47;;;35.37;;
59062;SDS011;44851;45.648;9.004;2023-01-31T11:24:24;59.80;;;34.97;;
59062;SDS011;44851;45.648;9.004;2023-01-31T11:26:54;55.67;;;34.33;;
59062;SDS011;44851;45.648;9.004;2023-01-31T11:29:24;60.30;;;34.30;;
59062;SDS011;44851;45.648;9.004;2023-01-31T11:31:53;58.63;;;35.77;;
59062;SDS011;44851;45.648;9.004;2023-01-31T11:34:27;57.50;;;35.27;;
59062;SDS011;44851;45.648;9.004;2023-01-31T11:37:02;53.60;;;34.60;;
59062;SDS011;44851;45.648;9.004;2023-01-31T11:39:56;51.30;;;33.43;;
59062;SDS011;44851;45.648;9.004;2023-01-31T11:42:23;58.90;;;34.77;;
59062;SDS011;44851;45.648;9.004;2023-01-31T11:44:59;55.67;;;33.50;;
59062;SDS011;44851;45.648;9.004;2023-01-31T11:47:47;54.93;;;32.83;;
59062;SDS011;44851;45.648;9.004;2023-01-31T11:50:19;52.13;;;31.33;;
59062;SDS011;44851;45.648;9.004;2023-01-31T11:52:57;53.80;;;32.63;;
59062;SDS011;44851;45.648;9.004;2023-01-31T11:55:33;54.37;;;33.27;;
59062;SDS011;44851;45.648;9.004;2023-01-31T11:58:02;57.47;;;34.27;;
59062;SDS011;44851;45.648;9.004;2023-01-31T12:00:39;58.17;;;33.97;;
59062;SDS011;44851;45.648;9.004;2023-01-31T12:03:16;53.30;;;32.80;;
59062;SDS011;44851;45.648;9.004;2023-01-31T12:05:43;54.70;;;34.33;;
59062;SDS011;44851;45.648;9.004;2023-01-31T12:10:57;51.90;;;32.60;;
59062;SDS011;44851;45.648;9.004;2023-01-31T12:13:23;56.00;;;32.97;;
59062;SDS011;44851;45.648;9.004;2023-01-31T12:23:38;54.47;;;34.97;;
59062;SDS011;44851;45.648;9.004;2023-01-31T12:26:12;58.30;;;35.00;;
59062;SDS011;44851;45.648;9.004;2023-01-31T12:28:51;56.73;;;35.53;;
59062;SDS011;44851;45.648;9.004;2023-01-31T12:33:55;56.47;;;34.23;;
59062;SDS011;44851;45.648;9.004;2023-01-31T12:39:38;54.03;;;33.50;;
59062;SDS011;44851;45.648;9.004;2023-01-31T12:50:34;53.67;;;33.33;;
59062;SDS011;44851;45.648;9.004;2023-01-31T12:55:46;54.57;;;35.13;;
59062;SDS011;44851;45.648;9.004;2023-01-31T12:58:44;55.87;;;32.80;;
59062;SDS011;44851;45.648;9.004;2023-01-31T13:01:23;54.33;;;33.83;;
59062;SDS011;44851;45.648;9.004;2023-01-31T13:06:42;55.43;;;34.47;;
59062;SDS011;44851;45.648;9.004;2023-01-31T13:09:30;52.50;;;33.43;;
59062;SDS011;44851;45.648;9.004;2023-01-31T13:12:01;52.20;;;34.27;;
59062;SDS011;44851;45.648;9.004;2023-01-31T13:14:33;54.90;;;32.00;;
59062;SDS011;44851;45.648;9.004;2023-01-31T13:17:04;54.43;;;33.80;;
59062;SDS011;44851;45.648;9.004;2023-01-31T13:22:13;50.80;;;32.63;;
59062;SDS011;44851;45.648;9.004;2023-01-31T13:24:56;55.80;;;31.60;;
59062;SDS011;44851;45.648;9.004;2023-01-31T13:27:43;52.10;;;32.17;;
59062;SDS011;44851;45.648;9.004;2023-01-31T13:30:21;51.40;;;32.97;;
59062;SDS011;44851;45.648;9.004;2023-01-31T13:32:59;52.07;;;30.67;;
59062;SDS011;44851;45.648;9.004;2023-01-31T13:35:39;46.70;;;29.30;;
59062;SDS011;44851;45.648;9.004;2023-01-31T13:38:10;55.07;;;31.53;;
59062;SDS011;44851;45.648;9.004;2023-01-31T13:40:50;51.37;;;30.60;;
59062;SDS011;44851;45.648;9.004;2023-01-31T13:43:18;51.97;;;31.70;;
59062;SDS011;44851;45.648;9.004;2023-01-31T13:45:46;49.17;;;30.37;;
59062;SDS011;44851;45.648;9.004;2023-01-31T13:48:22;49.03;;;29.43;;
59062;SDS011;44851;45.648;9.004;2023-01-31T13:50:53;58.77;;;31.53;;
59062;SDS011;44851;45.648;9.004;2023-01-31T13:53:29;59.67;;;32.23;;
59062;SDS011;44851;45.648;9.004;2023-01-31T13:56:00;56.00;;;32.93;;
59062;SDS011;44851;45.648;9.004;2023-01-31T13:58:31;54.33;;;34.00;;
59062;SDS011;44851;45.648;9.004;2023-01-31T14:06:53;50.17;;;32.70;;
59062;SDS011;44851;45.648;9.004;2023-01-31T14:09:25;49.17;;;30.87;;
59062;SDS011;44851;45.648;9.004;2023-01-31T14:14:47;52.80;;;32.63;;
59062;SDS011;44851;45.648;9.004;2023-01-31T14:27:25;55.63;;;32.67;;
59062;SDS011;44851;45.648;9.004;2023-01-31T14:43:40;52.40;;;29.70;;
59062;SDS011;44851;45.648;9.004;2023-01-31T14:55:25;49.50;;;29.57;;
59062;SDS011;44851;45.648;9.004;2023-01-31T14:58:00;51.37;;;28.17;;
59062;SDS011;44851;45.648;9.004;2023-01-31T15:00:32;48.80;;;29.67;;
59062;SDS011;44851;45.648;9.004;2023-01-31T15:53:32;44.83;;;24.10;;
59062;SDS011;44851;45.648;9.004;2023-01-31T15:55:58;41.03;;;24.77;;
59062;SDS011;44851;45.648;9.004;2023-01-31T15:58:29;38.30;;;21.13;;
59062;SDS011;44851;45.648;9.004;2023-01-31T16:00:58;35.60;;;19.87;;
59062;SDS011;44851;45.648;9.004;2023-01-31T16:03:27;36.33;;;20.47;;
59062;SDS011;44851;45.648;9.004;2023-01-31T16:05:56;39.13;;;22.00;;
59062;SDS011;44851;45.648;9.004;2023-01-31T16:11:02;37.30;;;21.23;;
59062;SDS011;44851;45.648;9.004;2023-01-31T16:13:30;38.63;;;22.87;;
59062;SDS011;44851;45.648;9.004;2023-01-31T16:15:57;42.80;;;24.03;;
59062;SDS011;44851;45.648;9.004;2023-01-31T16:18:23;41.83;;;23.40;;
59062;SDS011;44851;45.648;9.004;2023-01-31T16:20:51;45.00;;;25.87;;
59062;SDS011;44851;45.648;9.004;2023-01-31T16:23:23;41.20;;;23.23;;
59062;SDS011;44851;45.648;9.004;2023-01-31T16:26:10;42.07;;;25.53;;
59062;SDS011;44851;45.648;9.004;2023-01-31T16:28:41;40.50;;;23.80;;
59062;SDS011;44851;45.648;9.004;2023-01-31T16:31:11;48.03;;;26.17;;
59062;SDS011;44851;45.648;9.004;2023-01-31T16:33:44;38.80;;;23.30;;
59062;SDS011;44851;45.648;9.004;2023-01-31T16:36:19;41.63;;;23.93;;
59062;SDS011;44851;45.648;9.004;2023-01-31T16:39:09;40.30;;;23.90;;
59062;SDS011;44851;45.648;9.004;2023-01-31T16:41:50;42.57;;;23.33;;
59062;SDS011;44851;45.648;9.004;2023-01-31T16:44:20;41.33;;;22.80;;
59062;SDS011;44851;45.648;9.004;2023-01-31T16:46:47;38.13;;;22.30;;
59062;SDS011;44851;45.648;9.004;2023-01-31T16:49:19;40.23;;;23.33;;
59062;SDS011;44851;45.648;9.004;2023-01-31T16:51:47;39.57;;;23.23;;
59062;SDS011;44851;45.648;9.004;2023-01-31T16:54:15;42.07;;;23.37;;
59062;SDS011;44851;45.648;9.004;2023-01-31T16:56:41;41.03;;;23.77;;
59062;SDS011;44851;45.648;9.004;2023-01-31T16:59:50;47.50;;;25.03;;
59062;SDS011;44851;45.648;9.004;2023-01-31T17:02:03;46.60;;;24.07;;
59062;SDS011;44851;45.648;9.004;2023-01-31T17:04:38;40.87;;;23.53;;
59062;SDS011;44851;45.648;9.004;2023-01-31T17:07:06;44.20;;;24.33;;
59062;SDS011;44851;45.648;9.004;2023-01-31T17:09:40;42.13;;;22.67;;
59062;SDS011;44851;45.648;9.004;2023-01-31T17:12:05;41.53;;;23.47;;
59062;SDS011;44851;45.648;9.004;2023-01-31T17:14:34;41.80;;;24.73;;
59062;SDS011;44851;45.648;9.004;2023-01-31T17:16:59;38.37;;;23.90;;
59062;SDS011;44851;45.648;9.004;2023-01-31T17:19:25;39.23;;;24.27;;
59062;SDS011;44851;45.648;9.004;2023-01-31T17:21:50;43.93;;;24.30;;
59062;SDS011;44851;45.648;9.004;2023-01-31T17:24:17;47.60;;;25.73;;
59062;SDS011;44851;45.648;9.004;2023-01-31T17:26:46;46.70;;;26.90;;
59062;SDS011;44851;45.648;9.004;2023-01-31T17:29:12;47.50;;;26.97;;
59062;SDS011;44851;45.648;9.004;2023-01-31T17:31:37;50.17;;;27.53;;
59062;SDS011;44851;45.648;9.004;2023-01-31T17:34:04;44.23;;;26.00;;
59062;SDS011;44851;45.648;9.004;2023-01-31T17:36:29;49.90;;;26.30;;
59062;SDS011;44851;45.648;9.004;2023-01-31T17:38:55;49.53;;;26.50;;
59062;SDS011;44851;45.648;9.004;2023-01-31T17:41:20;54.63;;;30.97;;
59062;SDS011;44851;45.648;9.004;2023-01-31T17:43:48;49.27;;;27.70;;
59062;SDS011;44851;45.648;9.004;2023-01-31T17:46:14;53.60;;;29.57;;